.
WxDataArchive / Data Records for 2008-08-29
2008-08-28 August 2008 2008-08-30

Data Records for Friday, 29 August 2008

Time	Temp	Chill	HIndex	Humid	Dewpt	 Wind 	HiWind	WindDir	Rain 	Barom 
-----	----	-----	------	-----	-----	------	------	-------	-----	----- 
00:00	70.3	70.3	70.3	81	64.2	0	1	0	0.00	29.790 
00:05	70.3	70.3	70.3	81	64.2	0	1	0	0.00	29.787 
00:10	70.3	70.3	70.3	81	64.2	0	1	0	0.00	29.788 
00:15	70.4	70.4	70.4	80	63.9	0	1	0	0.00	29.789 
00:20	70.6	70.6	70.6	80	64.1	0	2	0	0.00	29.790 
00:25	70.8	70.8	70.8	79	64.0	0	2	135	0.00	29.791 
00:30	70.8	70.8	70.8	79	64.0	0	1	135	0.00	29.788 
00:35	70.9	70.9	70.9	79	64.1	0	1	135	0.00	29.789 
00:40	70.9	70.9	70.9	79	64.1	0	1	135	0.00	29.790 
00:45	70.9	70.9	70.9	79	64.1	0	0	---	0.00	29.793 
00:50	70.9	70.9	70.9	79	64.1	0	1	135	0.00	29.791 
00:55	70.9	70.9	70.9	79	64.1	0	2	135	0.00	29.788 
01:00	71.1	71.1	71.1	79	64.2	0	2	135	0.00	29.785 
01:05	71.1	71.1	71.1	79	64.2	0	2	135	0.00	29.781 
01:10	71.1	71.1	71.1	78	63.9	0	1	135	0.00	29.780 
01:15	71.3	71.3	71.3	79	64.4	0	1	135	0.00	29.779 
01:20	71.3	71.3	71.3	79	64.4	0	1	135	0.00	29.777 
01:25	71.3	71.3	71.3	78	64.1	0	0	---	0.00	29.779 
01:30	71.3	71.3	71.3	78	64.1	0	0	---	0.00	29.778 
01:35	71.3	71.3	71.3	78	64.1	0	0	---	0.00	29.782 
01:40	71.3	71.3	71.3	79	64.4	0	0	---	0.00	29.777 
01:45	71.3	71.3	71.3	78	64.1	0	0	---	0.00	29.771 
01:50	71.3	71.3	71.3	78	64.1	0	0	---	0.00	29.774 
01:55	71.1	71.1	71.1	79	64.2	0	1	135	0.00	29.772 
02:00	71.1	71.1	71.1	79	64.2	0	1	135	0.00	29.770 
02:05	70.9	70.9	70.9	79	64.1	0	1	135	0.00	29.771 
02:10	70.9	70.9	70.9	79	64.1	0	1	135	0.00	29.769 
02:15	70.9	70.9	70.9	79	64.1	0	1	135	0.00	29.769 
02:20	70.9	70.9	70.9	78	63.7	0	1	135	0.00	29.769 
02:25	70.9	70.9	70.9	78	63.7	0	1	135	0.00	29.770 
02:30	70.9	70.9	70.9	78	63.7	0	1	135	0.00	29.770 
02:35	71.1	71.1	71.1	77	63.5	0	1	135	0.00	29.771 
02:40	71.1	71.1	71.1	77	63.5	0	0	---	0.00	29.771 
02:45	71.1	71.1	71.1	77	63.5	0	0	---	0.00	29.773 
02:50	71.1	71.1	71.1	78	63.9	0	1	135	0.00	29.773 
02:55	71.1	71.1	71.1	79	64.2	0	0	---	0.00	29.773 
03:00	70.9	70.9	70.9	80	64.4	0	0	---	0.00	29.772 
03:05	70.8	70.8	70.8	81	64.7	0	1	135	0.00	29.773 
03:10	70.6	70.6	70.6	82	64.8	0	0	---	0.00	29.769 
03:15	70.4	70.4	70.4	83	65.0	0	0	---	0.00	29.769 
03:20	70.1	70.1	70.1	84	65.0	0	0	---	0.00	29.769 
03:25	69.9	69.9	69.9	84	64.8	0	0	---	0.00	29.769 
03:30	69.8	69.8	69.8	84	64.7	0	0	---	0.00	29.766 
03:35	69.6	69.6	69.6	85	64.9	0	1	135	0.00	29.762 
03:40	69.4	69.4	69.4	86	65.0	0	0	---	0.00	29.766 
03:45	69.3	69.3	69.3	86	64.9	0	1	135	0.00	29.760 
03:50	69.1	69.1	69.1	86	64.7	0	1	135	0.00	29.757 
03:55	68.9	68.9	68.9	87	64.9	0	1	135	0.00	29.756 
04:00	68.9	68.9	68.9	87	64.9	0	0	---	0.00	29.755 
04:05	68.8	68.8	68.8	87	64.8	0	0	---	0.00	29.757 
04:10	68.6	68.6	68.6	88	64.9	0	1	135	0.00	29.756 
04:15	68.4	68.4	68.4	88	64.7	0	0	---	0.00	29.758 
04:20	68.3	68.3	68.3	89	64.9	0	0	---	0.00	29.759 
04:25	68.3	68.3	68.3	89	64.9	0	1	135	0.00	29.757 
04:30	68.1	68.1	68.1	89	64.7	0	0	---	0.00	29.755 
04:35	68.1	68.1	68.1	90	65.0	0	1	135	0.00	29.754 
04:40	68.3	68.3	68.3	90	65.2	0	1	135	0.00	29.757 
04:45	68.3	68.3	68.3	90	65.2	0	0	---	0.00	29.758 
04:50	68.4	68.4	68.4	91	65.7	0	1	135	0.00	29.757 
04:55	68.4	68.4	68.4	91	65.7	0	0	---	0.00	29.758 
05:00	68.6	68.6	68.6	91	65.9	0	0	---	0.00	29.756 
05:05	68.6	68.6	68.6	91	65.9	0	1	135	0.00	29.757 
05:10	68.8	68.8	68.8	90	65.7	0	0	---	0.00	29.763 
05:15	68.9	68.9	68.9	90	65.8	0	0	---	0.00	29.771 
05:20	68.9	68.9	68.9	90	65.8	0	0	---	0.00	29.772 
05:25	68.9	68.9	68.9	90	65.8	0	0	---	0.00	29.772 
05:30	68.9	68.9	68.9	90	65.8	0	0	---	0.00	29.773 
05:35	68.8	68.8	68.8	90	65.7	0	0	---	0.00	29.773 
05:40	68.6	68.6	68.6	90	65.5	0	0	---	0.00	29.772 
05:45	68.6	68.6	68.6	90	65.5	0	0	---	0.00	29.773 
05:50	68.4	68.4	68.4	90	65.3	0	1	135	0.00	29.775 
05:55	68.4	68.4	68.4	91	65.7	0	0	---	0.00	29.777 
06:00	68.4	68.4	68.4	91	65.7	0	0	---	0.00	29.783 
06:05	68.4	68.4	68.4	91	65.7	0	0	---	0.00	29.788 
06:10	68.3	68.3	68.3	91	65.6	0	0	---	0.00	29.791 
06:15	68.3	68.3	68.3	91	65.6	0	0	---	0.00	29.791 
06:20	68.3	68.3	68.3	91	65.6	0	0	---	0.00	29.790 
06:25	68.4	68.4	68.4	92	66.0	0	1	135	0.00	29.786 
06:30	68.4	68.4	68.4	92	66.0	0	1	135	0.00	29.787 
06:35	68.6	68.6	68.6	92	66.2	0	0	---	0.00	29.787 
06:40	68.8	68.8	68.8	92	66.4	0	1	135	0.00	29.788 
06:45	69.1	69.1	69.1	92	66.7	0	1	135	0.00	29.789 
06:50	69.4	69.4	69.4	92	67.0	0	2	135	0.00	29.790 
06:55	69.8	69.8	69.8	91	67.0	0	2	202	0.00	29.790 
07:00	70.1	70.1	70.1	90	67.0	0	2	225	0.00	29.790 
07:05	70.6	70.6	70.6	89	67.2	0	1	225	0.00	29.795 
07:10	70.9	70.9	70.9	88	67.2	1	2	270	0.00	29.793 
07:15	71.3	71.3	71.3	87	67.2	1	3	270	0.00	29.793 
07:20	71.6	71.6	71.6	87	67.5	0	2	270	0.00	29.791 
07:25	72.0	72.0	72.0	86	67.6	0	1	270	0.00	29.792 
07:30	72.1	72.1	72.1	85	67.3	0	1	270	0.00	29.799 
07:35	72.3	72.3	72.3	85	67.5	0	1	270	0.00	29.803 
07:40	72.3	72.3	72.3	85	67.5	0	1	270	0.00	29.804 
07:45	72.3	72.3	72.3	85	67.5	0	1	270	0.00	29.803 
07:50	72.5	72.5	72.5	85	67.7	0	1	270	0.00	29.805 
07:55	72.5	72.5	72.5	85	67.7	0	1	270	0.00	29.804 
08:00	72.7	72.7	72.7	85	67.9	0	2	270	0.00	29.805 
08:05	72.7	72.7	72.7	85	67.9	0	1	270	0.00	29.808 
08:10	72.7	72.7	72.7	85	67.9	0	2	270	0.00	29.807 
08:15	72.8	72.8	72.8	85	68.0	0	2	270	0.00	29.807 
08:20	72.8	72.8	72.8	85	68.0	0	2	270	0.00	29.808 
08:25	73.0	73.0	73.0	85	68.2	0	2	270	0.00	29.808 
08:30	73.0	73.0	73.0	84	67.9	0	3	270	0.00	29.808 
08:35	73.2	73.2	73.2	84	68.1	0	2	270	0.00	29.809 
08:40	73.2	73.2	73.2	84	68.1	1	2	270	0.00	29.808 
08:45	73.3	73.3	73.3	84	68.2	0	2	270	0.00	29.807 
08:50	73.7	73.7	73.7	84	68.6	1	3	270	0.00	29.804 
08:55	74.0	74.0	74.0	84	68.8	1	2	292	0.00	29.802 
09:00	74.4	74.4	74.4	82	68.5	0	2	292	0.00	29.803 
09:05	74.7	74.7	74.7	81	68.5	1	3	292	0.00	29.806 
09:10	74.7	74.7	74.7	81	68.5	0	2	292	0.00	29.807 
09:15	74.7	74.7	74.7	81	68.5	1	3	292	0.00	29.807 
09:20	74.7	74.7	74.7	81	68.5	0	3	292	0.00	29.807 
09:25	74.7	74.7	74.7	81	68.5	0	1	292	0.00	29.807 
09:30	74.6	74.6	74.6	81	68.4	0	3	292	0.00	29.809 
09:35	74.7	74.7	74.7	81	68.5	0	2	292	0.00	29.809 
09:40	75.1	75.1	75.6	81	68.9	0	1	292	0.00	29.809 
09:45	75.6	75.6	76.3	81	69.3	0	2	292	0.00	29.809 
09:50	76.1	76.1	77.1	80	69.5	0	1	292	0.00	29.809 
09:55	76.7	76.7	78.1	79	69.7	0	1	292	0.00	29.809 
10:00	77.2	77.2	79.0	76	69.0	0	2	248	0.00	29.813 
10:05	77.4	77.4	79.3	75	68.8	1	2	270	0.00	29.813 
10:10	77.4	77.4	79.3	76	69.2	0	1	270	0.00	29.813 
10:15	77.7	77.7	79.7	75	69.1	0	1	270	0.00	29.817 
10:20	78.5	78.5	80.9	73	69.1	0	3	270	0.00	29.817 
10:25	79.0	79.0	81.6	72	69.2	0	2	270	0.00	29.817 
10:30	79.4	79.4	82.1	71	69.2	1	4	270	0.00	29.819 
10:35	79.6	79.6	82.3	70	68.9	1	2	270	0.00	29.819 
10:40	80.1	80.1	83.1	70	69.4	0	2	315	0.00	29.819 
10:45	80.1	80.1	83.0	69	69.0	0	1	315	0.00	29.818 
10:50	80.1	80.1	83.1	70	69.4	0	2	315	0.00	29.818 
10:55	79.8	79.8	82.5	69	68.7	0	2	315	0.00	29.818 
11:00	79.4	79.4	82.0	70	68.7	1	4	22	0.00	29.821 
11:05	79.2	79.2	81.7	70	68.5	0	2	22	0.00	29.821 
11:10	79.6	79.6	82.2	69	68.5	0	1	22	0.00	29.821 
11:15	79.8	79.8	82.4	68	68.3	1	4	22	0.00	29.822 
11:20	80.3	80.3	83.2	68	68.8	1	4	112	0.00	29.822 
11:25	80.3	80.3	83.2	68	68.8	0	2	68	0.00	29.822 
11:30	79.9	79.9	82.7	69	68.8	1	3	315	0.00	29.823 
11:35	80.9	80.9	84.0	67	68.9	0	2	338	0.00	29.823 
11:40	81.2	81.2	84.1	65	68.3	0	2	338	0.00	29.823 
11:45	81.2	81.2	84.1	65	68.3	0	2	338	0.00	29.828 
11:50	81.4	81.4	84.4	65	68.5	1	3	315	0.00	29.828 
11:55	81.4	81.4	84.3	64	68.0	1	2	292	0.00	29.828 
12:00	81.8	81.8	84.9	64	68.4	1	3	292	0.00	29.830 
12:05	82.2	82.2	85.1	62	67.9	1	3	292	0.00	29.830 
12:10	82.6	82.6	85.7	62	68.2	0	2	315	0.00	29.830 
12:15	82.0	82.0	85.2	64	68.6	1	3	315	0.00	29.831 
12:20	81.4	81.4	84.3	64	68.0	1	3	270	0.00	29.831 
12:25	81.8	81.8	84.7	63	67.9	0	3	202	0.00	29.831 
12:30	82.8	82.8	85.8	61	67.9	1	2	202	0.00	29.831 
12:35	83.4	83.4	86.3	59	67.5	1	5	202	0.00	29.831 
12:40	82.8	82.8	85.6	60	67.5	0	3	0	0.00	29.831 
12:45	82.4	82.4	85.2	61	67.6	0	1	338	0.00	29.835 
12:50	82.6	82.6	85.1	59	66.8	1	3	315	0.00	29.835 
12:55	82.4	82.4	84.6	58	66.1	1	3	22	0.00	29.835 
13:00	82.6	82.6	85.3	60	67.3	0	2	338	0.00	29.837 
13:05	83.2	83.2	85.8	58	66.9	0	2	338	0.00	29.837 
13:10	84.3	84.3	87.2	57	67.4	0	2	338	0.00	29.837 
13:15	84.7	84.7	87.6	56	67.2	1	6	0	0.00	29.835 
13:20	84.5	84.5	87.5	57	67.6	0	2	0	0.00	29.835 
13:25	84.7	84.7	87.3	55	66.7	1	3	0	0.00	29.835 
13:30	84.7	84.7	87.0	54	66.2	1	4	248	0.00	29.833 
13:35	84.5	84.5	86.7	54	66.0	1	3	248	0.00	29.833 
13:40	84.9	84.9	86.8	52	65.3	0	3	270	0.00	29.833 
13:45	85.5	85.5	87.4	51	65.3	1	3	270	0.00	29.831 
13:50	85.9	85.9	87.7	50	65.1	0	2	68	0.00	29.831 
13:55	86.1	86.1	87.8	49	64.7	1	2	68	0.00	29.831 
14:00	86.5	86.5	87.5	46	63.2	0	3	45	0.00	29.830 
14:05	87.0	87.0	87.9	45	63.1	1	3	45	0.00	29.830 
14:10	87.2	87.2	88.2	45	63.2	1	3	315	0.00	29.830 
14:15	87.2	87.2	87.9	44	62.6	1	3	180	0.00	29.830 
14:20	86.7	86.7	87.0	43	61.5	1	4	292	0.00	29.830 
14:25	86.7	86.7	86.0	39	58.7	1	2	338	0.00	29.830 
14:30	87.2	87.2	86.9	40	59.9	0	2	338	0.00	29.829 
14:35	87.4	87.4	86.9	39	59.4	1	2	338	0.00	29.829 
14:40	87.8	87.8	87.4	39	59.7	0	1	22	0.00	29.829 
14:45	87.8	87.8	86.5	35	56.7	2	4	292	0.00	29.831 
14:50	88.0	88.0	86.7	35	56.9	0	1	315	0.00	29.831 
14:55	88.2	88.2	86.7	34	56.2	0	3	315	0.00	29.831 
15:00	88.4	88.4	86.7	33	55.6	1	3	338	0.00	29.831 
15:05	88.0	88.0	86.1	32	54.4	1	2	315	0.00	29.831 
15:10	88.0	88.0	86.5	34	56.1	0	2	315	0.00	29.831 
15:15	87.6	87.6	85.8	33	54.9	1	5	292	0.00	29.832 
15:20	87.4	87.4	85.1	30	52.1	2	6	292	0.00	29.832 
15:25	87.4	87.4	85.0	29	51.2	2	4	270	0.00	29.832 
15:30	87.6	87.6	85.3	30	52.3	2	6	270	0.00	29.832 
15:35	87.8	87.8	86.5	35	56.7	1	3	270	0.00	29.832 
15:40	88.0	88.0	86.7	35	56.9	0	2	68	0.00	29.832 
15:45	88.0	88.0	85.9	31	53.5	1	3	315	0.00	29.834 
15:50	87.8	87.8	85.9	32	54.2	1	5	315	0.00	29.834 
15:55	87.4	87.4	85.8	34	55.5	1	3	315	0.00	29.834 
16:00	87.2	87.2	85.4	33	54.6	1	3	292	0.00	29.834 
16:05	87.2	87.2	85.6	34	55.4	0	3	0	0.00	29.834 
16:10	87.2	87.2	85.1	31	52.8	1	4	338	0.00	29.834 
16:15	87.0	87.0	85.4	34	55.2	1	3	292	0.00	29.833 
16:20	86.7	86.7	85.2	35	55.7	1	4	315	0.00	29.833 
16:25	86.5	86.5	85.2	36	56.3	1	3	315	0.00	29.833 
16:30	86.1	86.1	84.8	36	56.0	0	3	315	0.00	29.835 
16:35	85.7	85.7	84.5	37	56.4	1	4	292	0.00	29.835 
16:40	85.5	85.5	84.5	38	57.0	1	2	292	0.00	29.835 
16:45	85.3	85.3	84.1	37	56.0	0	2	292	0.00	29.836 
16:50	84.9	84.9	83.7	37	55.7	1	3	315	0.00	29.836 
16:55	84.9	84.9	83.6	36	54.9	1	2	315	0.00	29.836 
17:00	84.7	84.7	83.4	36	54.8	1	3	315	0.00	29.838 
17:05	84.7	84.7	83.2	35	54.0	1	3	292	0.00	29.838 
17:10	84.9	84.9	83.4	35	54.2	1	3	292	0.00	29.838 
17:15	84.9	84.9	83.3	34	53.4	1	2	292	0.00	29.842 
17:20	84.7	84.7	83.1	34	53.2	1	3	292	0.00	29.842 
17:25	84.7	84.7	83.1	34	53.2	1	3	270	0.00	29.842 
17:30	84.5	84.5	83.2	36	54.6	1	3	292	0.00	29.841 
17:35	84.3	84.3	83.1	37	55.2	0	2	292	0.00	29.841 
17:40	84.1	84.1	82.8	36	54.2	1	4	292	0.00	29.841 
17:45	84.0	84.0	83.0	38	55.6	0	2	315	0.00	29.848 
17:50	83.8	83.8	82.7	37	54.7	0	2	315	0.00	29.848 
17:55	83.6	83.6	82.6	38	55.3	0	2	292	0.00	29.848 
18:00	83.4	83.4	82.4	38	55.1	0	2	292	0.00	29.851 
18:05	83.2	83.2	82.3	38	54.9	1	2	292	0.00	29.851 
18:10	83.0	83.0	82.3	40	56.2	0	2	292	0.00	29.851 
18:15	82.6	82.6	82.0	40	55.8	1	3	292	0.00	29.852 
18:20	82.2	82.2	81.7	41	56.1	0	3	270	0.00	29.852 
18:25	82.0	82.0	81.6	41	55.9	0	1	270	0.00	29.852 
18:30	81.6	81.6	81.2	41	55.6	0	2	270	0.00	29.857 
18:35	81.2	81.2	80.7	39	53.9	1	3	292	0.00	29.857 
18:40	80.9	80.9	80.5	39	53.6	1	3	292	0.00	29.857 
18:45	80.5	80.5	80.2	39	53.2	0	2	292	0.00	29.868 
18:50	80.1	80.1	79.9	39	52.9	1	3	292	0.00	29.868 
18:55	79.8	79.8	79.6	38	51.9	1	3	315	0.00	29.868 
19:00	79.4	79.4	79.5	39	52.3	0	2	315	0.00	29.876 
19:05	79.0	79.0	79.3	40	52.6	0	2	315	0.00	29.876 
19:10	78.6	78.6	79.1	41	52.9	0	3	315	0.00	29.876 
19:15	78.3	78.3	79.1	43	53.9	0	2	270	0.00	29.880 
19:20	78.1	78.1	78.9	43	53.8	0	2	270	0.00	29.880 
19:25	77.7	77.7	78.8	44	54.0	0	1	270	0.00	29.880 
19:30	77.2	77.2	78.5	45	54.2	0	1	270	0.00	29.887 
19:35	76.8	76.8	78.4	46	54.4	0	1	270	0.00	29.887 
19:40	76.5	76.5	78.3	47	54.7	0	1	270	0.00	29.887 
19:45	76.1	76.1	78.1	48	55.0	0	1	270	0.00	29.897 
19:50	75.6	75.6	77.9	49	55.1	0	1	270	0.00	29.897 
19:55	75.4	75.4	77.8	50	55.4	0	2	270	0.00	29.897 
20:00	75.1	75.1	77.7	50	55.2	0	1	270	0.00	29.904 
20:05	74.7	74.7	74.7	51	55.4	0	1	270	0.00	29.904 
20:10	74.6	74.6	74.6	51	55.3	0	1	270	0.00	29.904 
20:15	74.2	74.2	74.2	51	54.9	0	2	270	0.00	29.912 
20:20	74.0	74.0	74.0	51	54.7	0	1	270	0.00	29.912 
20:25	73.9	73.9	73.9	52	55.1	0	1	270	0.00	29.912 
20:30	73.5	73.5	73.5	52	54.8	0	1	270	0.00	29.917 
20:35	73.3	73.3	73.3	52	54.6	0	2	270	0.00	29.917 
20:40	73.2	73.2	73.2	53	55.0	0	1	270	0.00	29.917 
20:45	72.8	72.8	72.8	54	55.2	0	1	270	0.00	29.922 
20:50	72.5	72.5	72.5	54	54.9	0	1	270	0.00	29.922 
20:55	72.1	72.1	72.1	55	55.0	0	1	270	0.00	29.922 
21:00	71.8	71.8	71.8	56	55.2	0	0	---	0.00	29.926 
21:05	71.5	71.5	71.5	56	55.0	0	0	---	0.00	29.926 
21:10	70.9	70.9	70.9	57	54.9	0	0	---	0.00	29.926 
21:15	70.6	70.6	70.6	58	55.1	0	0	---	0.00	29.931 
21:20	70.3	70.3	70.3	59	55.3	0	0	---	0.00	29.931 
21:25	69.9	69.9	69.9	59	54.9	0	0	---	0.00	29.931 
21:30	69.4	69.4	69.4	61	55.4	0	0	---	0.00	29.934 
21:35	68.9	68.9	68.9	62	55.3	0	0	---	0.00	29.934 
21:40	68.6	68.6	68.6	62	55.0	0	0	---	0.00	29.934 
21:45	68.3	68.3	68.3	62	54.8	0	0	---	0.00	29.936 
21:50	67.9	67.9	67.9	64	55.3	0	0	---	0.00	29.936 
21:55	67.4	67.4	67.4	65	55.2	0	0	---	0.00	29.936 
22:00	67.1	67.1	67.1	65	54.9	0	0	---	0.00	29.937 
22:05	66.9	66.9	66.9	66	55.2	0	0	---	0.00	29.937 
22:10	66.6	66.6	66.6	66	54.9	0	0	---	0.00	29.937 
22:15	66.4	66.4	66.4	67	55.1	0	0	---	0.00	29.938 
22:20	66.1	66.1	66.1	67	54.8	0	0	---	0.00	29.938 
22:25	66.0	66.0	66.0	67	54.7	0	0	---	0.00	29.938 
22:30	65.6	65.6	65.6	69	55.1	0	0	---	0.00	29.938 
22:35	65.3	65.3	65.3	69	54.9	0	0	---	0.00	29.938 
22:40	65.0	65.0	65.0	70	55.0	0	0	---	0.00	29.938 
22:45	64.7	64.7	64.7	70	54.7	0	0	---	0.00	29.937 
22:50	64.5	64.5	64.5	71	54.9	0	0	---	0.00	29.937 
22:55	64.2	64.2	64.2	72	55.0	0	0	---	0.00	29.937 
23:00	63.9	63.9	63.9	72	54.7	0	0	---	0.00	29.938 
23:05	63.5	63.5	63.5	72	54.3	0	0	---	0.00	29.938 
23:10	63.2	63.2	63.2	73	54.4	0	0	---	0.00	29.938 
23:15	62.9	62.9	62.9	74	54.5	0	0	---	0.00	29.937 
23:20	62.4	62.4	62.4	75	54.4	0	0	---	0.00	29.937 
23:25	62.0	62.0	62.0	77	54.7	0	0	---	0.00	29.937 
23:30	61.5	61.5	61.5	78	54.6	0	0	---	0.00	29.940 
23:35	61.2	61.2	61.2	78	54.3	0	0	---	0.00	29.940 
23:40	60.7	60.7	60.7	79	54.1	0	0	---	0.00	29.940 
23:45	60.5	60.5	60.5	79	54.0	0	0	---	0.00	29.943 
23:50	60.1	60.1	60.1	81	54.2	0	0	---	0.00	29.943 
23:55	59.8	59.8	59.8	81	54.0	0	0	---	0.00	29.943 

CoCoRaHS
IN-AL-39
A2 Web Hosting
Creative Commons License
GoDaddy
Look for:

loaded 2017-12-11 06:43:49 • last modified 2010-11-18 10:43:29
Privacy PolicyDisclaimer
• wx.awcolley.com is powered by PmWiki v.2002016 •
• all content (unless otherwise noted) © 2017 A W Colley